sensor_id;sensor_type;location;lat;lon;timestamp;pressure;altitude;pressure_sealevel;temperature;humidity
21504;BME280;10913;51.992;9.228;2022-11-23T00:01:34;98633.25;;;7.17;100.00
21504;BME280;10913;51.992;9.228;2022-11-23T00:04:05;98624.44;;;7.20;100.00
21504;BME280;10913;51.992;9.228;2022-11-23T00:06:31;98641.00;;;7.23;100.00
21504;BME280;10913;51.992;9.228;2022-11-23T00:08:57;98639.25;;;7.24;100.00
21504;BME280;10913;51.992;9.228;2022-11-23T00:11:24;98632.22;;;7.24;100.00
21504;BME280;10913;51.992;9.228;2022-11-23T00:13:50;98634.75;;;7.29;100.00
21504;BME280;10913;51.992;9.228;2022-11-23T00:16:21;98633.84;;;7.32;100.00
21504;BME280;10913;51.992;9.228;2022-11-23T00:18:46;98633.84;;;7.32;100.00
21504;BME280;10913;51.992;9.228;2022-11-23T00:21:14;98636.53;;;7.29;100.00
21504;BME280;10913;51.992;9.228;2022-11-23T00:23:40;98639.16;;;7.29;100.00
21504;BME280;10913;51.992;9.228;2022-11-23T00:26:06;98644.34;;;7.32;100.00
21504;BME280;10913;51.992;9.228;2022-11-23T00:28:32;98643.44;;;7.33;100.00
21504;BME280;10913;51.992;9.228;2022-11-23T00:30:59;98646.09;;;7.33;100.00
21504;BME280;10913;51.992;9.228;2022-11-23T00:33:24;98644.19;;;7.39;100.00
21504;BME280;10913;51.992;9.228;2022-11-23T00:36:00;98652.75;;;7.49;100.00
21504;BME280;10913;51.992;9.228;2022-11-23T00:38:27;98644.84;;;7.50;100.00
21504;BME280;10913;51.992;9.228;2022-11-23T00:40:59;98646.50;;;7.54;100.00
21504;BME280;10913;51.992;9.228;2022-11-23T00:43:26;98638.59;;;7.56;100.00
21504;BME280;10913;51.992;9.228;2022-11-23T00:46:05;98641.22;;;7.56;100.00
21504;BME280;10913;51.992;9.228;2022-11-23T00:48:31;98635.09;;;7.55;100.00
21504;BME280;10913;51.992;9.228;2022-11-23T00:50:56;98642.97;;;7.55;100.00
21504;BME280;10913;51.992;9.228;2022-11-23T00:53:22;98636.88;;;7.53;100.00
21504;BME280;10913;51.992;9.228;2022-11-23T00:55:54;98642.13;;;7.55;100.00
21504;BME280;10913;51.992;9.228;2022-11-23T00:58:20;98641.16;;;7.59;100.00
21504;BME280;10913;51.992;9.228;2022-11-23T01:00:46;98647.13;;;7.66;100.00
21504;BME280;10913;51.992;9.228;2022-11-23T01:03:12;98639.19;;;7.69;100.00
21504;BME280;10913;51.992;9.228;2022-11-23T01:05:38;98642.66;;;7.71;100.00
21504;BME280;10913;51.992;9.228;2022-11-23T01:08:04;98649.66;;;7.70;100.00
21504;BME280;10913;51.992;9.228;2022-11-23T01:10:30;98655.81;;;7.69;100.00
21504;BME280;10913;51.992;9.228;2022-11-23T01:12:56;98652.31;;;7.69;100.00
21504;BME280;10913;51.992;9.228;2022-11-23T01:15:21;98652.31;;;7.69;100.00
21504;BME280;10913;51.992;9.228;2022-11-23T01:17:46;98658.44;;;7.69;100.00
21504;BME280;10913;51.992;9.228;2022-11-23T01:20:12;98648.03;;;7.65;100.00
21504;BME280;10913;51.992;9.228;2022-11-23T01:22:37;98648.88;;;7.65;100.00
21504;BME280;10913;51.992;9.228;2022-11-23T01:25:03;98641.91;;;7.64;100.00
21504;BME280;10913;51.992;9.228;2022-11-23T01:27:28;98642.72;;;7.66;100.00
21504;BME280;10913;51.992;9.228;2022-11-23T01:29:54;98645.38;;;7.66;100.00
21504;BME280;10913;51.992;9.228;2022-11-23T01:32:19;98648.88;;;7.65;100.00
21504;BME280;10913;51.992;9.228;2022-11-23T01:34:44;98647.09;;;7.67;100.00
21504;BME280;10913;51.992;9.228;2022-11-23T01:37:10;98654.13;;;7.67;100.00
21504;BME280;10913;51.992;9.228;2022-11-23T01:39:35;98648.88;;;7.65;100.00
21504;BME280;10913;51.992;9.228;2022-11-23T01:42:00;98652.34;;;7.67;100.00
21504;BME280;10913;51.992;9.228;2022-11-23T01:44:28;98649.66;;;7.70;100.00
21504;BME280;10913;51.992;9.228;2022-11-23T01:47:06;98662.78;;;7.72;100.00
21504;BME280;10913;51.992;9.228;2022-11-23T01:49:50;98659.28;;;7.71;100.00
21504;BME280;10913;51.992;9.228;2022-11-23T01:52:17;98664.47;;;7.74;100.00
21504;BME280;10913;51.992;9.228;2022-11-23T01:54:48;98666.03;;;7.81;100.00
21504;BME280;10913;51.992;9.228;2022-11-23T01:57:19;98665.97;;;7.84;100.00
21504;BME280;10913;51.992;9.228;2022-11-23T01:59:45;98667.72;;;7.85;100.00
21504;BME280;10913;51.992;9.228;2022-11-23T02:02:11;98664.25;;;7.83;100.00
21504;BME280;10913;51.992;9.228;2022-11-23T02:04:39;98666.03;;;7.81;100.00
21504;BME280;10913;51.992;9.228;2022-11-23T02:07:06;98670.44;;;7.81;100.00
21504;BME280;10913;51.992;9.228;2022-11-23T02:09:33;98672.19;;;7.80;100.00
21504;BME280;10913;51.992;9.228;2022-11-23T02:11:59;98674.03;;;7.78;100.00
21504;BME280;10913;51.992;9.228;2022-11-23T02:14:25;98677.44;;;7.82;100.00
21504;BME280;10913;51.992;9.228;2022-11-23T02:16:52;98673.06;;;7.81;100.00
21504;BME280;10913;51.992;9.228;2022-11-23T02:22:15;98671.31;;;7.81;100.00
21504;BME280;10913;51.992;9.228;2022-11-23T02:24:48;98667.75;;;7.84;100.00
21504;BME280;10913;51.992;9.228;2022-11-23T02:27:16;98670.44;;;7.81;100.00
21504;BME280;10913;51.992;9.228;2022-11-23T02:29:41;98671.31;;;7.81;100.00
21504;BME280;10913;51.992;9.228;2022-11-23T02:32:07;98666.94;;;7.80;100.00
21504;BME280;10913;51.992;9.228;2022-11-23T02:34:33;98667.00;;;7.79;100.00
21504;BME280;10913;51.992;9.228;2022-11-23T02:36:58;98670.50;;;7.79;100.00
21504;BME280;10913;51.992;9.228;2022-11-23T02:39:33;98666.19;;;7.75;100.00
21504;BME280;10913;51.992;9.228;2022-11-23T02:42:01;98667.94;;;7.76;100.00
21504;BME280;10913;51.992;9.228;2022-11-23T02:47:05;98668.72;;;7.80;100.00
21504;BME280;10913;51.992;9.228;2022-11-23T02:49:32;98670.34;;;7.85;100.00
21504;BME280;10913;51.992;9.228;2022-11-23T02:51:58;98668.66;;;7.83;100.00
21504;BME280;10913;51.992;9.228;2022-11-23T02:54:23;98672.97;;;7.85;100.00
21504;BME280;10913;51.992;9.228;2022-11-23T02:56:49;98672.91;;;7.88;100.00
21504;BME280;10913;51.992;9.228;2022-11-23T02:59:14;98678.19;;;7.87;100.00
21504;BME280;10913;51.992;9.228;2022-11-23T03:01:39;98683.41;;;7.90;100.00
21504;BME280;10913;51.992;9.228;2022-11-23T03:04:05;98674.59;;;7.92;100.00
21504;BME280;10913;51.992;9.228;2022-11-23T03:06:31;98677.22;;;7.92;100.00
21504;BME280;10913;51.992;9.228;2022-11-23T03:08:56;98679.84;;;7.92;100.00
21504;BME280;10913;51.992;9.228;2022-11-23T03:11:22;98673.69;;;7.93;100.00
21504;BME280;10913;51.992;9.228;2022-11-23T03:13:47;98672.75;;;7.96;100.00
21504;BME280;10913;51.992;9.228;2022-11-23T03:16:13;98668.34;;;7.97;100.00
21504;BME280;10913;51.992;9.228;2022-11-23T03:18:38;98669.22;;;7.97;100.00
21504;BME280;10913;51.992;9.228;2022-11-23T03:21:05;98671.75;;;8.00;100.00
21504;BME280;10913;51.992;9.228;2022-11-23T03:23:33;98668.25;;;8.00;100.00
21504;BME280;10913;51.992;9.228;2022-11-23T03:25:59;98666.41;;;8.05;100.00
21504;BME280;10913;51.992;9.228;2022-11-23T03:28:25;98667.31;;;8.04;100.00
21504;BME280;10913;51.992;9.228;2022-11-23T03:30:51;98663.84;;;8.02;100.00
21504;BME280;10913;51.992;9.228;2022-11-23T03:33:16;98664.69;;;8.02;100.00
21504;BME280;10913;51.992;9.228;2022-11-23T03:35:42;98675.19;;;8.04;100.00
21504;BME280;10913;51.992;9.228;2022-11-23T03:38:08;98667.31;;;8.04;100.00
21504;BME280;10913;51.992;9.228;2022-11-23T03:40:33;98663.00;;;8.00;100.00
21504;BME280;10913;51.992;9.228;2022-11-23T03:42:59;98667.50;;;7.96;100.00
21504;BME280;10913;51.992;9.228;2022-11-23T03:45:24;98676.25;;;7.97;100.00
21504;BME280;10913;51.992;9.228;2022-11-23T03:47:49;98670.84;;;8.01;100.00
21504;BME280;10913;51.992;9.228;2022-11-23T03:50:15;98669.13;;;8.00;100.00
21504;BME280;10913;51.992;9.228;2022-11-23T03:52:40;98676.09;;;8.03;100.00
21504;BME280;10913;51.992;9.228;2022-11-23T03:55:06;98677.81;;;8.04;100.00
21504;BME280;10913;51.992;9.228;2022-11-23T03:57:32;98670.88;;;8.00;100.00
21504;BME280;10913;51.992;9.228;2022-11-23T03:59:57;98666.56;;;7.99;100.00
21504;BME280;10913;51.992;9.228;2022-11-23T04:02:22;98685.84;;;7.99;100.00
21504;BME280;10913;51.992;9.228;2022-11-23T04:04:48;98683.25;;;7.98;100.00
21504;BME280;10913;51.992;9.228;2022-11-23T04:07:14;98684.09;;;7.98;100.00
21504;BME280;10913;51.992;9.228;2022-11-23T04:09:39;98687.63;;;7.97;100.00
21504;BME280;10913;51.992;9.228;2022-11-23T04:12:05;98676.22;;;7.98;100.00
21504;BME280;10913;51.992;9.228;2022-11-23T04:14:30;98677.97;;;7.98;100.00
21504;BME280;10913;51.992;9.228;2022-11-23T04:16:56;98674.34;;;8.02;100.00
21504;BME280;10913;51.992;9.228;2022-11-23T04:19:21;98681.41;;;8.00;100.00
21504;BME280;10913;51.992;9.228;2022-11-23T04:21:47;98672.63;;;8.01;100.00
21504;BME280;10913;51.992;9.228;2022-11-23T04:24:12;98683.22;;;7.99;100.00
21504;BME280;10913;51.992;9.228;2022-11-23T04:26:37;98684.88;;;8.02;100.00
21504;BME280;10913;51.992;9.228;2022-11-23T04:29:04;98692.72;;;8.03;100.00
21504;BME280;10913;51.992;9.228;2022-11-23T04:31:29;98683.22;;;7.99;100.00
21504;BME280;10913;51.992;9.228;2022-11-23T04:33:55;98687.63;;;7.97;100.00
21504;BME280;10913;51.992;9.228;2022-11-23T04:36:21;98682.38;;;7.97;100.00
21504;BME280;10913;51.992;9.228;2022-11-23T04:38:46;98677.97;;;7.98;100.00
21504;BME280;10913;51.992;9.228;2022-11-23T04:41:12;98687.59;;;7.99;100.00
21504;BME280;10913;51.992;9.228;2022-11-23T04:43:37;98681.25;;;8.07;100.00
21504;BME280;10913;51.992;9.228;2022-11-23T04:46:03;98682.19;;;8.05;100.00
21504;BME280;10913;51.992;9.228;2022-11-23T04:48:28;98689.16;;;8.06;100.00
21504;BME280;10913;51.992;9.228;2022-11-23T04:50:54;98683.06;;;8.04;100.00
21504;BME280;10913;51.992;9.228;2022-11-23T04:53:19;98681.28;;;8.06;100.00
21504;BME280;10913;51.992;9.228;2022-11-23T04:55:45;98697.91;;;8.08;100.00
21504;BME280;10913;51.992;9.228;2022-11-23T04:58:11;98685.63;;;8.08;100.00
21504;BME280;10913;51.992;9.228;2022-11-23T05:00:36;98693.53;;;8.07;100.00
21504;BME280;10913;51.992;9.228;2022-11-23T05:03:02;98697.94;;;8.06;100.00
21504;BME280;10913;51.992;9.228;2022-11-23T05:05:27;98700.59;;;8.05;100.00
21504;BME280;10913;51.992;9.228;2022-11-23T05:07:53;98700.59;;;8.05;100.00
21504;BME280;10913;51.992;9.228;2022-11-23T05:10:18;98693.59;;;8.04;100.00
21504;BME280;10913;51.992;9.228;2022-11-23T05:12:44;98710.31;;;8.01;100.00
21504;BME280;10913;51.992;9.228;2022-11-23T05:15:11;98698.84;;;8.04;100.00
21504;BME280;10913;51.992;9.228;2022-11-23T05:17:37;98697.06;;;8.06;100.00
21504;BME280;10913;51.992;9.228;2022-11-23T05:20:03;98689.22;;;8.03;100.00
21504;BME280;10913;51.992;9.228;2022-11-23T05:22:28;98686.78;;;7.97;100.00
21504;BME280;10913;51.992;9.228;2022-11-23T05:24:54;98691.19;;;7.94;100.00
21504;BME280;10913;51.992;9.228;2022-11-23T05:27:19;98696.50;;;7.91;100.00
21504;BME280;10913;51.992;9.228;2022-11-23T05:29:45;98696.50;;;7.91;100.00
21504;BME280;10913;51.992;9.228;2022-11-23T05:32:10;98697.41;;;7.90;100.00
21504;BME280;10913;51.992;9.228;2022-11-23T05:34:35;98695.66;;;7.91;100.00
21504;BME280;10913;51.992;9.228;2022-11-23T05:37:01;98702.69;;;7.89;100.00
21504;BME280;10913;51.992;9.228;2022-11-23T05:39:26;98700.19;;;7.83;100.00
21504;BME280;10913;51.992;9.228;2022-11-23T05:41:52;98709.00;;;7.80;100.00
21504;BME280;10913;51.992;9.228;2022-11-23T05:44:17;98704.69;;;7.79;100.00
21504;BME280;10913;51.992;9.228;2022-11-23T05:46:43;98712.56;;;7.79;100.00
21504;BME280;10913;51.992;9.228;2022-11-23T05:49:09;98713.47;;;7.78;100.00
21504;BME280;10913;51.992;9.228;2022-11-23T05:51:34;98709.00;;;7.80;100.00
21504;BME280;10913;51.992;9.228;2022-11-23T05:54:00;98709.84;;;7.82;100.00
21504;BME280;10913;51.992;9.228;2022-11-23T05:56:26;98708.03;;;7.84;100.00
21504;BME280;10913;51.992;9.228;2022-11-23T05:58:54;98705.41;;;7.84;100.00
21504;BME280;10913;51.992;9.228;2022-11-23T06:01:20;98714.09;;;7.88;100.00
21504;BME280;10913;51.992;9.228;2022-11-23T06:03:45;98709.72;;;7.88;100.00
21504;BME280;10913;51.992;9.228;2022-11-23T06:06:11;98701.81;;;7.90;100.00
21504;BME280;10913;51.992;9.228;2022-11-23T06:08:36;98711.38;;;7.92;100.00
21504;BME280;10913;51.992;9.228;2022-11-23T06:11:01;98720.16;;;7.91;100.00
21504;BME280;10913;51.992;9.228;2022-11-23T06:13:27;98712.28;;;7.91;100.00
21504;BME280;10913;51.992;9.228;2022-11-23T06:15:52;98718.41;;;7.92;100.00
21504;BME280;10913;51.992;9.228;2022-11-23T06:18:18;98719.31;;;7.91;100.00
21504;BME280;10913;51.992;9.228;2022-11-23T06:20:43;98717.56;;;7.90;100.00
21504;BME280;10913;51.992;9.228;2022-11-23T06:23:08;98718.50;;;7.87;100.00
21504;BME280;10913;51.992;9.228;2022-11-23T06:25:35;98722.88;;;7.88;100.00
21504;BME280;10913;51.992;9.228;2022-11-23T06:28:02;98730.63;;;7.94;100.00
21504;BME280;10913;51.992;9.228;2022-11-23T06:30:28;98727.16;;;7.92;100.00
21504;BME280;10913;51.992;9.228;2022-11-23T06:32:54;98734.94;;;7.99;100.00
21504;BME280;10913;51.992;9.228;2022-11-23T06:35:19;98726.94;;;8.02;100.00
21504;BME280;10913;51.992;9.228;2022-11-23T06:37:47;98728.75;;;8.00;100.00
21504;BME280;10913;51.992;9.228;2022-11-23T06:40:13;98721.63;;;8.05;100.00
21504;BME280;10913;51.992;9.228;2022-11-23T06:42:38;98727.81;;;8.02;100.00
21504;BME280;10913;51.992;9.228;2022-11-23T06:45:04;98727.03;;;7.99;100.00
21504;BME280;10913;51.992;9.228;2022-11-23T06:47:30;98742.66;;;8.05;100.00
21504;BME280;10913;51.992;9.228;2022-11-23T06:49:55;98734.78;;;8.05;100.00
21504;BME280;10913;51.992;9.228;2022-11-23T06:52:20;98742.66;;;8.05;100.00
21504;BME280;10913;51.992;9.228;2022-11-23T06:54:46;98747.91;;;8.05;100.00
21504;BME280;10913;51.992;9.228;2022-11-23T06:57:11;98748.69;;;8.10;100.00
21504;BME280;10913;51.992;9.228;2022-11-23T06:59:37;98747.88;;;8.08;100.00
21504;BME280;10913;51.992;9.228;2022-11-23T07:02:02;98746.06;;;8.10;100.00
21504;BME280;10913;51.992;9.228;2022-11-23T07:04:28;98748.69;;;8.10;100.00
21504;BME280;10913;51.992;9.228;2022-11-23T07:06:53;98740.84;;;8.08;100.00
21504;BME280;10913;51.992;9.228;2022-11-23T07:09:18;98751.38;;;8.07;100.00
21504;BME280;10913;51.992;9.228;2022-11-23T07:11:44;98749.75;;;8.01;100.00
21504;BME280;10913;51.992;9.228;2022-11-23T07:14:09;98747.88;;;8.08;100.00
21504;BME280;10913;51.992;9.228;2022-11-23T07:16:34;98748.81;;;8.04;100.00
21504;BME280;10913;51.992;9.228;2022-11-23T07:19:00;98758.50;;;8.02;100.00
21504;BME280;10913;51.992;9.228;2022-11-23T07:21:25;98752.28;;;8.06;100.00
21504;BME280;10913;51.992;9.228;2022-11-23T07:23:51;98752.28;;;8.06;100.00
21504;BME280;10913;51.992;9.228;2022-11-23T07:26:16;98754.06;;;8.04;100.00
21504;BME280;10913;51.992;9.228;2022-11-23T07:28:41;98746.97;;;8.09;100.00
21504;BME280;10913;51.992;9.228;2022-11-23T07:31:07;98758.31;;;8.11;100.00
21504;BME280;10913;51.992;9.228;2022-11-23T07:33:32;98759.16;;;8.13;100.00
21504;BME280;10913;51.992;9.228;2022-11-23T07:36:01;98763.53;;;8.12;100.00
21504;BME280;10913;51.992;9.228;2022-11-23T07:38:28;98758.28;;;8.12;100.00
21504;BME280;10913;51.992;9.228;2022-11-23T07:40:53;98763.53;;;8.14;100.00
21504;BME280;10913;51.992;9.228;2022-11-23T07:43:19;98765.31;;;8.12;100.00
21504;BME280;10913;51.992;9.228;2022-11-23T07:45:44;98765.31;;;8.12;100.00
21504;BME280;10913;51.992;9.228;2022-11-23T07:48:10;98773.16;;;8.15;100.00
21504;BME280;10913;51.992;9.228;2022-11-23T07:50:37;98765.19;;;8.18;100.00
21504;BME280;10913;51.992;9.228;2022-11-23T07:53:05;98770.44;;;8.18;100.00
21504;BME280;10913;51.992;9.228;2022-11-23T07:55:31;98774.75;;;8.20;100.00
21504;BME280;10913;51.992;9.228;2022-11-23T07:57:56;98782.53;;;8.25;100.00
21504;BME280;10913;51.992;9.228;2022-11-23T08:00:23;98788.63;;;8.28;100.00
21504;BME280;10913;51.992;9.228;2022-11-23T08:02:49;98782.50;;;8.28;100.00
21504;BME280;10913;51.992;9.228;2022-11-23T08:05:15;98775.41;;;8.33;100.00
21504;BME280;10913;51.992;9.228;2022-11-23T08:07:41;98781.47;;;8.37;100.00
21504;BME280;10913;51.992;9.228;2022-11-23T08:10:07;98775.19;;;8.42;100.00
21504;BME280;10913;51.992;9.228;2022-11-23T08:12:33;98782.09;;;8.46;100.00
21504;BME280;10913;51.992;9.228;2022-11-23T08:14:59;98785.59;;;8.47;100.00
21504;BME280;10913;51.992;9.228;2022-11-23T08:17:24;98794.34;;;8.49;100.00
21504;BME280;10913;51.992;9.228;2022-11-23T08:19:49;98787.25;;;8.52;100.00
21504;BME280;10913;51.992;9.228;2022-11-23T08:22:15;98795.06;;;8.55;100.00
21504;BME280;10913;51.992;9.228;2022-11-23T08:24:40;98787.03;;;8.60;100.00
21504;BME280;10913;51.992;9.228;2022-11-23T08:27:06;98793.16;;;8.62;100.00
21504;BME280;10913;51.992;9.228;2022-11-23T08:29:31;98794.69;;;8.72;100.00
21504;BME280;10913;51.992;9.228;2022-11-23T08:31:57;98790.22;;;8.76;100.00
21504;BME280;10913;51.992;9.228;2022-11-23T08:34:22;98789.28;;;8.78;100.00
21504;BME280;10913;51.992;9.228;2022-11-23T08:36:47;98798.06;;;8.77;100.00
21504;BME280;10913;51.992;9.228;2022-11-23T08:39:13;98788.31;;;8.81;100.00
21504;BME280;10913;51.992;9.228;2022-11-23T08:41:40;98796.97;;;8.86;100.00
21504;BME280;10913;51.992;9.228;2022-11-23T08:44:05;98797.84;;;8.86;100.00
21504;BME280;10913;51.992;9.228;2022-11-23T08:46:34;98800.38;;;8.91;100.00
21504;BME280;10913;51.992;9.228;2022-11-23T08:48:59;98803.00;;;8.91;100.00
21504;BME280;10913;51.992;9.228;2022-11-23T08:51:25;98804.78;;;8.90;100.00
21504;BME280;10913;51.992;9.228;2022-11-23T08:53:50;98807.44;;;8.89;100.00
21504;BME280;10913;51.992;9.228;2022-11-23T08:56:16;98802.06;;;8.93;100.00
21504;BME280;10913;51.992;9.228;2022-11-23T08:58:41;98802.00;;;8.96;100.00
21504;BME280;10913;51.992;9.228;2022-11-23T09:01:11;98807.06;;;9.04;100.00
21504;BME280;10913;51.992;9.228;2022-11-23T09:03:38;98806.09;;;9.08;100.00
21504;BME280;10913;51.992;9.228;2022-11-23T09:06:04;98811.31;;;9.10;99.72
21504;BME280;10913;51.992;9.228;2022-11-23T09:08:30;98815.50;;;9.18;99.47
21504;BME280;10913;51.992;9.228;2022-11-23T09:10:59;98814.41;;;9.27;98.81
21504;BME280;10913;51.992;9.228;2022-11-23T09:13:25;98818.66;;;9.32;99.17
21504;BME280;10913;51.992;9.228;2022-11-23T09:15:50;98808.03;;;9.36;98.45
21504;BME280;10913;51.992;9.228;2022-11-23T09:18:16;98807.78;;;9.45;98.40
21504;BME280;10913;51.992;9.228;2022-11-23T09:20:41;98811.25;;;9.47;98.01
21504;BME280;10913;51.992;9.228;2022-11-23T09:23:08;98804.00;;;9.55;97.16
21504;BME280;10913;51.992;9.228;2022-11-23T09:25:33;98806.59;;;9.56;97.24
21504;BME280;10913;51.992;9.228;2022-11-23T09:27:59;98804.09;;;9.52;97.08
21504;BME280;10913;51.992;9.228;2022-11-23T09:30:25;98807.59;;;9.52;97.24
21504;BME280;10913;51.992;9.228;2022-11-23T09:32:51;98807.56;;;9.54;97.17
21504;BME280;10913;51.992;9.228;2022-11-23T09:35:16;98808.41;;;9.54;97.65
21504;BME280;10913;51.992;9.228;2022-11-23T09:37:41;98804.84;;;9.57;97.92
21504;BME280;10913;51.992;9.228;2022-11-23T09:40:12;98803.06;;;9.57;98.00
21504;BME280;10913;51.992;9.228;2022-11-23T09:50:32;98811.00;;;9.56;97.96
21504;BME280;10913;51.992;9.228;2022-11-23T09:53:06;98812.56;;;9.63;97.96
21504;BME280;10913;51.992;9.228;2022-11-23T09:55:43;98821.31;;;9.65;97.68
21504;BME280;10913;51.992;9.228;2022-11-23T09:58:16;98811.41;;;9.73;97.61
21504;BME280;10913;51.992;9.228;2022-11-23T10:00:50;98822.59;;;9.81;97.03
21504;BME280;10913;51.992;9.228;2022-11-23T10:03:18;98821.53;;;9.88;96.53
21504;BME280;10913;51.992;9.228;2022-11-23T10:06:00;98819.41;;;10.01;96.47
21504;BME280;10913;51.992;9.228;2022-11-23T10:08:47;98816.63;;;10.07;95.73
21504;BME280;10913;51.992;9.228;2022-11-23T10:17:00;98821.84;;;10.09;95.74
21504;BME280;10913;51.992;9.228;2022-11-23T10:24:51;98814.13;;;10.01;95.30
21504;BME280;10913;51.992;9.228;2022-11-23T10:27:22;98811.47;;;10.02;95.35
21504;BME280;10913;51.992;9.228;2022-11-23T10:29:48;98816.56;;;10.09;95.36
21504;BME280;10913;51.992;9.228;2022-11-23T10:33:00;98818.09;;;10.17;95.06
21504;BME280;10913;51.992;9.228;2022-11-23T10:35:29;98815.44;;;10.19;94.31
21504;BME280;10913;51.992;9.228;2022-11-23T10:38:17;98815.97;;;10.30;94.45
21504;BME280;10913;51.992;9.228;2022-11-23T10:43:34;98810.63;;;10.33;93.40
21504;BME280;10913;51.992;9.228;2022-11-23T10:49:24;98810.25;;;10.45;93.36
21504;BME280;10913;51.992;9.228;2022-11-23T10:51:58;98811.97;;;10.46;93.30
21504;BME280;10913;51.992;9.228;2022-11-23T11:00:02;98804.06;;;10.46;92.31
21504;BME280;10913;51.992;9.228;2022-11-23T11:02:37;98802.16;;;10.51;92.08
21504;BME280;10913;51.992;9.228;2022-11-23T11:05:33;98804.75;;;10.53;91.38
21504;BME280;10913;51.992;9.228;2022-11-23T11:08:07;98796.66;;;10.59;91.38
21504;BME280;10913;51.992;9.228;2022-11-23T11:13:20;98791.91;;;10.68;90.60
21504;BME280;10913;51.992;9.228;2022-11-23T11:18:56;98790.66;;;10.80;89.05
21504;BME280;10913;51.992;9.228;2022-11-23T11:21:34;98794.88;;;10.86;88.08
21504;BME280;10913;51.992;9.228;2022-11-23T11:24:12;98786.06;;;10.87;88.33
21504;BME280;10913;51.992;9.228;2022-11-23T11:26:45;98789.09;;;11.01;88.21
21504;BME280;10913;51.992;9.228;2022-11-23T11:29:23;98789.00;;;11.30;87.05
21504;BME280;10913;51.992;9.228;2022-11-23T11:32:05;98792.44;;;11.59;86.07
21504;BME280;10913;51.992;9.228;2022-11-23T11:34:46;98778.13;;;11.89;85.90
21504;BME280;10913;51.992;9.228;2022-11-23T11:37:22;98781.84;;;12.08;84.18
21504;BME280;10913;51.992;9.228;2022-11-23T11:40:09;98778.75;;;12.19;83.03
21504;BME280;10913;51.992;9.228;2022-11-23T11:42:42;98774.69;;;12.11;82.94
21504;BME280;10913;51.992;9.228;2022-11-23T11:45:27;98773.25;;;12.02;82.60
21504;BME280;10913;51.992;9.228;2022-11-23T11:50:23;98783.09;;;11.98;82.78
21504;BME280;10913;51.992;9.228;2022-11-23T11:52:54;98782.63;;;11.87;82.27
21504;BME280;10913;51.992;9.228;2022-11-23T11:55:24;98777.97;;;11.69;82.58
21504;BME280;10913;51.992;9.228;2022-11-23T11:58:02;98781.38;;;11.72;82.74
21504;BME280;10913;51.992;9.228;2022-11-23T12:00:29;98786.59;;;11.74;81.17
21504;BME280;10913;51.992;9.228;2022-11-23T12:03:22;98779.25;;;11.82;81.80
21504;BME280;10913;51.992;9.228;2022-11-23T12:05:53;98778.09;;;11.91;81.69
21504;BME280;10913;51.992;9.228;2022-11-23T12:08:46;98779.00;;;11.90;81.49
21504;BME280;10913;51.992;9.228;2022-11-23T12:11:17;98780.13;;;11.83;81.33
21504;BME280;10913;51.992;9.228;2022-11-23T12:13:44;98786.16;;;11.61;81.36
21504;BME280;10913;51.992;9.228;2022-11-23T12:16:24;98786.44;;;11.54;82.40
21504;BME280;10913;51.992;9.228;2022-11-23T12:18:59;98793.63;;;11.24;82.34
21504;BME280;10913;51.992;9.228;2022-11-23T12:24:45;98778.69;;;11.23;83.23
21504;BME280;10913;51.992;9.228;2022-11-23T12:32:56;98777.41;;;11.59;81.29
21504;BME280;10913;51.992;9.228;2022-11-23T12:40:50;98782.03;;;11.79;80.13
21504;BME280;10913;51.992;9.228;2022-11-23T12:43:31;98784.88;;;11.73;79.58
21504;BME280;10913;51.992;9.228;2022-11-23T12:48:52;98772.06;;;11.61;81.01
21504;BME280;10913;51.992;9.228;2022-11-23T12:51:51;98768.94;;;11.50;80.78
21504;BME280;10913;51.992;9.228;2022-11-23T13:13:40;98750.59;;;10.94;81.09
21504;BME280;10913;51.992;9.228;2022-11-23T13:21:43;98742.63;;;10.95;82.33
21504;BME280;10913;51.992;9.228;2022-11-23T13:24:30;98736.38;;;10.98;82.56
21504;BME280;10913;51.992;9.228;2022-11-23T13:29:53;98733.31;;;10.84;83.09
21504;BME280;10913;51.992;9.228;2022-11-23T13:32:59;98736.22;;;10.76;82.96
21504;BME280;10913;51.992;9.228;2022-11-23T13:42:51;98732.41;;;10.58;82.59
21504;BME280;10913;51.992;9.228;2022-11-23T13:48:21;98726.50;;;10.50;82.54
21504;BME280;10913;51.992;9.228;2022-11-23T13:53:22;98724.25;;;10.38;83.00
21504;BME280;10913;51.992;9.228;2022-11-23T13:55:51;98719.16;;;10.32;82.87
21504;BME280;10913;51.992;9.228;2022-11-23T14:00:57;98726.50;;;10.21;83.40
21504;BME280;10913;51.992;9.228;2022-11-23T14:06:15;98731.19;;;10.11;82.91
21504;BME280;10913;51.992;9.228;2022-11-23T14:08:45;98735.69;;;10.08;82.77
21504;BME280;10913;51.992;9.228;2022-11-23T14:11:14;98721.75;;;10.02;82.91
21504;BME280;10913;51.992;9.228;2022-11-23T14:13:51;98719.16;;;10.01;83.06
21504;BME280;10913;51.992;9.228;2022-11-23T14:16:52;98730.59;;;10.01;82.99
21504;BME280;10913;51.992;9.228;2022-11-23T14:22:44;98719.41;;;9.93;82.64
21504;BME280;10913;51.992;9.228;2022-11-23T14:33:45;98742.00;;;9.73;83.73
21504;BME280;10913;51.992;9.228;2022-11-23T14:38:52;98737.75;;;9.67;83.98
21504;BME280;10913;51.992;9.228;2022-11-23T14:41:22;98743.09;;;9.64;84.45
21504;BME280;10913;51.992;9.228;2022-11-23T14:43:49;98744.16;;;9.58;84.72
21504;BME280;10913;51.992;9.228;2022-11-23T14:46:19;98733.56;;;9.60;84.78
21504;BME280;10913;51.992;9.228;2022-11-23T14:48:46;98744.22;;;9.57;84.76
21504;BME280;10913;51.992;9.228;2022-11-23T14:51:39;98738.16;;;9.53;84.23
21504;BME280;10913;51.992;9.228;2022-11-23T14:54:08;98742.50;;;9.54;84.37
21504;BME280;10913;51.992;9.228;2022-11-23T14:56:45;98756.63;;;9.52;84.47
21504;BME280;10913;51.992;9.228;2022-11-23T14:59:34;98750.53;;;9.50;84.51
21504;BME280;10913;51.992;9.228;2022-11-23T15:05:15;98754.31;;;9.40;84.96
21504;BME280;10913;51.992;9.228;2022-11-23T15:07:50;98740.38;;;9.36;85.32
21504;BME280;10913;51.992;9.228;2022-11-23T15:12:54;98753.81;;;9.25;85.47
21504;BME280;10913;51.992;9.228;2022-11-23T15:15:25;98748.63;;;9.22;85.60
21504;BME280;10913;51.992;9.228;2022-11-23T15:18:01;98736.47;;;9.18;85.54